sensor_id;sensor_type;location;lat;lon;timestamp;pressure;altitude;pressure_sealevel;temperature;humidity
4598;BME280;62772;48.646;8.906;2023-07-28T00:01:17;95641.81;;;15.43;100.00
4598;BME280;62772;48.646;8.906;2023-07-28T00:06:18;95643.69;;;15.19;100.00
4598;BME280;62772;48.646;8.906;2023-07-28T00:11:18;95647.50;;;15.18;100.00
4598;BME280;62772;48.646;8.906;2023-07-28T00:16:19;95652.81;;;15.15;100.00
4598;BME280;62772;48.646;8.906;2023-07-28T00:21:20;95658.22;;;15.38;100.00
4598;BME280;62772;48.646;8.906;2023-07-28T00:26:20;95651.50;;;15.28;100.00
4598;BME280;62772;48.646;8.906;2023-07-28T00:31:20;95655.25;;;15.66;100.00
4598;BME280;62772;48.646;8.906;2023-07-28T00:36:21;95646.78;;;15.64;100.00
4598;BME280;62772;48.646;8.906;2023-07-28T00:41:21;95651.00;;;15.42;100.00
4598;BME280;62772;48.646;8.906;2023-07-28T00:46:22;95647.88;;;14.97;100.00
4598;BME280;62772;48.646;8.906;2023-07-28T00:51:23;95638.19;;;14.93;100.00
4598;BME280;62772;48.646;8.906;2023-07-28T00:56:23;95639.75;;;14.23;100.00
4598;BME280;62772;48.646;8.906;2023-07-28T01:01:25;95652.19;;;15.02;100.00
4598;BME280;62772;48.646;8.906;2023-07-28T01:11:35;95639.72;;;14.39;100.00
4598;BME280;62772;48.646;8.906;2023-07-28T01:16:36;95636.53;;;14.68;100.00
4598;BME280;62772;48.646;8.906;2023-07-28T01:27:20;95645.22;;;14.46;100.00
4598;BME280;62772;48.646;8.906;2023-07-28T01:32:21;95650.06;;;14.21;100.00
4598;BME280;62772;48.646;8.906;2023-07-28T01:37:21;95641.97;;;14.37;100.00
4598;BME280;62772;48.646;8.906;2023-07-28T01:42:22;95632.00;;;14.37;100.00
4598;BME280;62772;48.646;8.906;2023-07-28T01:47:22;95614.91;;;14.45;100.00
4598;BME280;62772;48.646;8.906;2023-07-28T01:52:23;95615.25;;;14.60;100.00
4598;BME280;62772;48.646;8.906;2023-07-28T01:57:23;95605.44;;;14.32;100.00
4598;BME280;62772;48.646;8.906;2023-07-28T02:02:27;95607.47;;;14.74;100.00
4598;BME280;62772;48.646;8.906;2023-07-28T02:07:29;95606.47;;;14.63;100.00
4598;BME280;62772;48.646;8.906;2023-07-28T02:12:29;95601.88;;;14.28;100.00
4598;BME280;62772;48.646;8.906;2023-07-28T02:17:30;95605.22;;;14.05;100.00
4598;BME280;62772;48.646;8.906;2023-07-28T02:22:30;95607.50;;;13.87;100.00
4598;BME280;62772;48.646;8.906;2023-07-28T02:27:31;95611.63;;;14.36;100.00
4598;BME280;62772;48.646;8.906;2023-07-28T02:32:31;95599.31;;;14.51;100.00
4598;BME280;62772;48.646;8.906;2023-07-28T02:37:32;95609.25;;;14.50;100.00
4598;BME280;62772;48.646;8.906;2023-07-28T02:42:33;95613.84;;;14.30;100.00
4598;BME280;62772;48.646;8.906;2023-07-28T02:47:35;95622.06;;;14.22;100.00
4598;BME280;62772;48.646;8.906;2023-07-28T02:52:36;95630.31;;;14.29;100.00
4598;BME280;62772;48.646;8.906;2023-07-28T02:57:36;95628.22;;;14.58;100.00
4598;BME280;62772;48.646;8.906;2023-07-28T03:02:37;95638.09;;;14.54;100.00
4598;BME280;62772;48.646;8.906;2023-07-28T03:07:38;95651.44;;;14.30;100.00
4598;BME280;62772;48.646;8.906;2023-07-28T03:12:42;95650.78;;;14.53;100.00
4598;BME280;62772;48.646;8.906;2023-07-28T03:17:44;95641.81;;;14.65;100.00
4598;BME280;62772;48.646;8.906;2023-07-28T03:22:44;95647.66;;;14.67;100.00
4598;BME280;62772;48.646;8.906;2023-07-28T03:27:45;95648.28;;;14.60;100.00
4598;BME280;62772;48.646;8.906;2023-07-28T03:32:46;95657.53;;;14.47;100.00
4598;BME280;62772;48.646;8.906;2023-07-28T03:37:46;95663.16;;;14.58;100.00
4598;BME280;62772;48.646;8.906;2023-07-28T03:42:47;95670.63;;;14.48;100.00
4598;BME280;62772;48.646;8.906;2023-07-28T03:47:47;95668.22;;;14.43;100.00
4598;BME280;62772;48.646;8.906;2023-07-28T03:52:48;95670.97;;;14.63;100.00
4598;BME280;62772;48.646;8.906;2023-07-28T03:57:48;95668.28;;;14.47;100.00
4598;BME280;62772;48.646;8.906;2023-07-28T04:02:49;95667.75;;;14.73;100.00
4598;BME280;62772;48.646;8.906;2023-07-28T04:07:49;95669.00;;;14.79;100.00
4598;BME280;62772;48.646;8.906;2023-07-28T04:12:50;95676.34;;;14.63;100.00
4598;BME280;62772;48.646;8.906;2023-07-28T04:17:50;95674.34;;;14.60;100.00
4598;BME280;62772;48.646;8.906;2023-07-28T04:22:50;95670.88;;;14.59;100.00
4598;BME280;62772;48.646;8.906;2023-07-28T04:27:51;95661.72;;;14.60;100.00
4598;BME280;62772;48.646;8.906;2023-07-28T04:32:52;95648.13;;;14.73;100.00
4598;BME280;62772;48.646;8.906;2023-07-28T04:37:55;95650.13;;;14.76;100.00
4598;BME280;62772;48.646;8.906;2023-07-28T04:43:10;95645.53;;;14.76;100.00
4598;BME280;62772;48.646;8.906;2023-07-28T04:48:11;95646.16;;;14.69;100.00
4598;BME280;62772;48.646;8.906;2023-07-28T04:53:11;95666.38;;;14.47;100.00
4598;BME280;62772;48.646;8.906;2023-07-28T04:58:36;95670.03;;;14.39;100.00
4598;BME280;62772;48.646;8.906;2023-07-28T05:03:37;95671.09;;;14.34;100.00
4598;BME280;62772;48.646;8.906;2023-07-28T05:08:51;95673.53;;;14.40;100.00
4598;BME280;62772;48.646;8.906;2023-07-28T05:13:58;95673.78;;;14.34;100.00
4598;BME280;62772;48.646;8.906;2023-07-28T05:18:59;95675.31;;;14.51;100.00
4598;BME280;62772;48.646;8.906;2023-07-28T05:24:19;95680.50;;;14.44;100.00
4598;BME280;62772;48.646;8.906;2023-07-28T05:29:20;95685.81;;;14.41;100.00
4598;BME280;62772;48.646;8.906;2023-07-28T05:34:21;95682.00;;;14.42;100.00
4598;BME280;62772;48.646;8.906;2023-07-28T05:39:22;95687.16;;;14.50;100.00
4598;BME280;62772;48.646;8.906;2023-07-28T05:44:22;95701.06;;;14.52;100.00
4598;BME280;62772;48.646;8.906;2023-07-28T05:49:23;95716.88;;;14.74;100.00
4598;BME280;62772;48.646;8.906;2023-07-28T05:54:23;95721.16;;;14.75;100.00
4598;BME280;62772;48.646;8.906;2023-07-28T05:59:24;95717.66;;;14.74;100.00
4598;BME280;62772;48.646;8.906;2023-07-28T06:04:25;95720.41;;;14.78;100.00
4598;BME280;62772;48.646;8.906;2023-07-28T06:09:29;95728.84;;;14.76;100.00
4598;BME280;62772;48.646;8.906;2023-07-28T06:14:31;95737.00;;;14.80;100.00
4598;BME280;62772;48.646;8.906;2023-07-28T06:19:32;95745.66;;;15.09;100.00
4598;BME280;62772;48.646;8.906;2023-07-28T06:24:33;95743.63;;;15.21;100.00
4598;BME280;62772;48.646;8.906;2023-07-28T06:29:35;95751.41;;;15.27;100.00
4598;BME280;62772;48.646;8.906;2023-07-28T06:34:35;95739.56;;;15.51;100.00
4598;BME280;62772;48.646;8.906;2023-07-28T06:39:36;95748.84;;;15.53;100.00
4598;BME280;62772;48.646;8.906;2023-07-28T06:44:37;95741.63;;;15.57;100.00
4598;BME280;62772;48.646;8.906;2023-07-28T06:49:37;95744.63;;;15.95;100.00
4598;BME280;62772;48.646;8.906;2023-07-28T06:54:38;95746.13;;;15.73;100.00
4598;BME280;62772;48.646;8.906;2023-07-28T06:59:41;95760.53;;;15.81;100.00
4598;BME280;62772;48.646;8.906;2023-07-28T07:04:42;95765.97;;;16.04;100.00
4598;BME280;62772;48.646;8.906;2023-07-28T07:09:43;95771.34;;;16.04;100.00
4598;BME280;62772;48.646;8.906;2023-07-28T07:14:44;95763.38;;;16.34;100.00
4598;BME280;62772;48.646;8.906;2023-07-28T07:19:44;95761.44;;;16.58;100.00
4598;BME280;62772;48.646;8.906;2023-07-28T07:24:45;95766.56;;;16.66;100.00
4598;BME280;62772;48.646;8.906;2023-07-28T07:29:45;95754.75;;;16.75;100.00
4598;BME280;62772;48.646;8.906;2023-07-28T07:34:46;95765.63;;;16.82;100.00
4598;BME280;62772;48.646;8.906;2023-07-28T07:39:46;95761.56;;;16.92;100.00
4598;BME280;62772;48.646;8.906;2023-07-28T07:44:47;95767.50;;;17.04;100.00
4598;BME280;62772;48.646;8.906;2023-07-28T07:49:47;95775.75;;;17.15;100.00
4598;BME280;62772;48.646;8.906;2023-07-28T07:54:47;95788.59;;;17.26;100.00
4598;BME280;62772;48.646;8.906;2023-07-28T07:59:48;95793.63;;;17.27;100.00
4598;BME280;62772;48.646;8.906;2023-07-28T08:04:48;95794.41;;;17.58;100.00
4598;BME280;62772;48.646;8.906;2023-07-28T08:09:49;95797.34;;;17.80;100.00
4598;BME280;62772;48.646;8.906;2023-07-28T08:14:50;95786.44;;;18.03;100.00
4598;BME280;62772;48.646;8.906;2023-07-28T08:19:50;95782.81;;;18.29;100.00
4598;BME280;62772;48.646;8.906;2023-07-28T08:24:51;95800.63;;;18.34;100.00
4598;BME280;62772;48.646;8.906;2023-07-28T08:29:51;95817.38;;;18.50;100.00
4598;BME280;62772;48.646;8.906;2023-07-28T08:34:52;95805.41;;;18.51;100.00
4598;BME280;62772;48.646;8.906;2023-07-28T08:39:52;95813.78;;;18.83;100.00
4598;BME280;62772;48.646;8.906;2023-07-28T08:44:53;95816.06;;;18.81;100.00
4598;BME280;62772;48.646;8.906;2023-07-28T08:49:53;95814.44;;;19.25;100.00
4598;BME280;62772;48.646;8.906;2023-07-28T08:54:54;95820.06;;;19.72;100.00
4598;BME280;62772;48.646;8.906;2023-07-28T08:59:55;95818.19;;;19.76;100.00
4598;BME280;62772;48.646;8.906;2023-07-28T09:04:56;95828.31;;;19.97;100.00
4598;BME280;62772;48.646;8.906;2023-07-28T09:09:59;95834.53;;;20.05;100.00
4598;BME280;62772;48.646;8.906;2023-07-28T09:15:01;95834.13;;;19.99;100.00
4598;BME280;62772;48.646;8.906;2023-07-28T09:20:01;95822.47;;;19.88;100.00
4598;BME280;62772;48.646;8.906;2023-07-28T09:25:11;95837.22;;;19.87;100.00
4598;BME280;62772;48.646;8.906;2023-07-28T09:30:12;95841.81;;;19.83;100.00
4598;BME280;62772;48.646;8.906;2023-07-28T09:35:17;95826.78;;;20.03;100.00
4598;BME280;62772;48.646;8.906;2023-07-28T09:40:20;95829.03;;;19.83;100.00
4598;BME280;62772;48.646;8.906;2023-07-28T09:45:21;95836.84;;;19.99;100.00
4598;BME280;62772;48.646;8.906;2023-07-28T09:50:23;95829.16;;;20.16;100.00
4598;BME280;62772;48.646;8.906;2023-07-28T09:55:24;95837.69;;;20.39;100.00
4598;BME280;62772;48.646;8.906;2023-07-28T10:00:25;95828.81;;;20.60;100.00
4598;BME280;62772;48.646;8.906;2023-07-28T10:05:26;95843.53;;;20.41;100.00
4598;BME280;62772;48.646;8.906;2023-07-28T10:10:27;95838.16;;;20.70;100.00
4598;BME280;62772;48.646;8.906;2023-07-28T10:15:30;95847.03;;;21.10;100.00
4598;BME280;62772;48.646;8.906;2023-07-28T10:20:36;95844.34;;;20.71;100.00
4598;BME280;62772;48.646;8.906;2023-07-28T10:25:41;95838.53;;;20.69;100.00
4598;BME280;62772;48.646;8.906;2023-07-28T10:30:51;95839.69;;;21.04;100.00
4598;BME280;62772;48.646;8.906;2023-07-28T10:35:52;95846.28;;;21.02;100.00
4598;BME280;62772;48.646;8.906;2023-07-28T10:41:08;95851.34;;;20.97;100.00
4598;BME280;62772;48.646;8.906;2023-07-28T10:46:10;95862.56;;;20.99;100.00
4598;BME280;62772;48.646;8.906;2023-07-28T10:51:12;95855.59;;;21.09;100.00
4598;BME280;62772;48.646;8.906;2023-07-28T10:56:19;95866.44;;;21.19;100.00
4598;BME280;62772;48.646;8.906;2023-07-28T11:01:20;95865.28;;;20.92;100.00
4598;BME280;62772;48.646;8.906;2023-07-28T11:06:21;95862.19;;;21.22;100.00
4598;BME280;62772;48.646;8.906;2023-07-28T11:11:21;95867.22;;;21.13;100.00
4598;BME280;62772;48.646;8.906;2023-07-28T11:16:22;95884.25;;;21.31;100.00
4598;BME280;62772;48.646;8.906;2023-07-28T11:21:23;95873.38;;;20.45;100.00
4598;BME280;62772;48.646;8.906;2023-07-28T11:26:24;95876.09;;;20.56;100.00
4598;BME280;62772;48.646;8.906;2023-07-28T11:31:25;95890.88;;;20.65;100.00
4598;BME280;62772;48.646;8.906;2023-07-28T11:36:30;95890.22;;;19.91;100.00
4598;BME280;62772;48.646;8.906;2023-07-28T11:41:32;95885.84;;;19.69;100.00
4598;BME280;62772;48.646;8.906;2023-07-28T11:46:41;95875.78;;;19.66;100.00
4598;BME280;62772;48.646;8.906;2023-07-28T11:51:44;95874.09;;;19.36;100.00
4598;BME280;62772;48.646;8.906;2023-07-28T11:56:46;95880.56;;;19.90;100.00
4598;BME280;62772;48.646;8.906;2023-07-28T12:07:15;95873.78;;;20.51;100.00
4598;BME280;62772;48.646;8.906;2023-07-28T12:12:19;95864.88;;;20.57;100.00
4598;BME280;62772;48.646;8.906;2023-07-28T12:17:23;95862.50;;;20.41;100.00
4598;BME280;62772;48.646;8.906;2023-07-28T12:22:24;95853.28;;;20.71;100.00
4598;BME280;62772;48.646;8.906;2023-07-28T12:27:24;95854.44;;;20.67;100.00
4598;BME280;62772;48.646;8.906;2023-07-28T12:32:27;95851.72;;;20.81;100.00
4598;BME280;62772;48.646;8.906;2023-07-28T12:37:28;95858.31;;;20.76;100.00
4598;BME280;62772;48.646;8.906;2023-07-28T12:42:28;95860.59;;;20.63;100.00
4598;BME280;62772;48.646;8.906;2023-07-28T12:47:29;95857.94;;;20.89;100.00
4598;BME280;62772;48.646;8.906;2023-07-28T12:52:30;95855.22;;;20.81;100.00
4598;BME280;62772;48.646;8.906;2023-07-28T12:57:32;95862.97;;;20.72;100.00
4598;BME280;62772;48.646;8.906;2023-07-28T13:02:33;95866.41;;;20.47;100.00
4598;BME280;62772;48.646;8.906;2023-07-28T13:07:33;95871.81;;;20.47;100.00
4598;BME280;62772;48.646;8.906;2023-07-28T13:12:34;95867.16;;;20.55;100.00
4598;BME280;62772;48.646;8.906;2023-07-28T13:17:34;95874.13;;;20.45;100.00
4598;BME280;62772;48.646;8.906;2023-07-28T13:22:34;95892.03;;;20.72;100.00
4598;BME280;62772;48.646;8.906;2023-07-28T13:27:35;95899.94;;;19.96;100.00
4598;BME280;62772;48.646;8.906;2023-07-28T13:32:35;95905.03;;;19.42;100.00
4598;BME280;62772;48.646;8.906;2023-07-28T13:37:36;95914.63;;;18.80;100.00
4598;BME280;62772;48.646;8.906;2023-07-28T13:42:36;95906.28;;;18.59;100.00
4598;BME280;62772;48.646;8.906;2023-07-28T13:47:37;95890.53;;;18.27;100.00
4598;BME280;62772;48.646;8.906;2023-07-28T13:52:37;95882.69;;;18.97;100.00
4598;BME280;62772;48.646;8.906;2023-07-28T13:57:38;95863.50;;;19.20;100.00
4598;BME280;62772;48.646;8.906;2023-07-28T14:02:39;95837.59;;;19.15;100.00
4598;BME280;62772;48.646;8.906;2023-07-28T14:07:40;95877.25;;;18.93;100.00
4598;BME280;62772;48.646;8.906;2023-07-28T14:12:41;95914.50;;;18.66;100.00
4598;BME280;62772;48.646;8.906;2023-07-28T14:17:41;95916.03;;;17.95;100.00
4598;BME280;62772;48.646;8.906;2023-07-28T14:22:42;95906.84;;;18.04;100.00
4598;BME280;62772;48.646;8.906;2023-07-28T14:27:42;95910.00;;;18.06;100.00
4598;BME280;62772;48.646;8.906;2023-07-28T14:32:42;95905.16;;;18.26;100.00
4598;BME280;62772;48.646;8.906;2023-07-28T14:37:43;95895.06;;;18.57;100.00
4598;BME280;62772;48.646;8.906;2023-07-28T14:42:43;95883.81;;;18.92;100.00
4598;BME280;62772;48.646;8.906;2023-07-28T14:47:44;95876.84;;;19.47;100.00
4598;BME280;62772;48.646;8.906;2023-07-28T14:52:44;95878.78;;;19.46;100.00
4598;BME280;62772;48.646;8.906;2023-07-28T14:57:45;95888.53;;;19.65;100.00
4598;BME280;62772;48.646;8.906;2023-07-28T15:02:46;95892.44;;;19.68;100.00
4598;BME280;62772;48.646;8.906;2023-07-28T15:07:46;95890.31;;;20.09;100.00
4598;BME280;62772;48.646;8.906;2023-07-28T15:12:47;95889.50;;;20.02;100.00
4598;BME280;62772;48.646;8.906;2023-07-28T15:17:47;95901.44;;;19.83;100.00
4598;BME280;62772;48.646;8.906;2023-07-28T15:22:48;95904.81;;;19.65;100.00
4598;BME280;62772;48.646;8.906;2023-07-28T15:27:48;95903.41;;;19.89;100.00
4598;BME280;62772;48.646;8.906;2023-07-28T15:32:49;95906.75;;;19.65;100.00
4598;BME280;62772;48.646;8.906;2023-07-28T15:37:49;95915.03;;;19.93;100.00
4598;BME280;62772;48.646;8.906;2023-07-28T15:42:50;95910.06;;;20.14;100.00
4598;BME280;62772;48.646;8.906;2023-07-28T15:47:50;95908.50;;;20.05;100.00
4598;BME280;62772;48.646;8.906;2023-07-28T15:52:50;95912.78;;;20.10;100.00
4598;BME280;62772;48.646;8.906;2023-07-28T15:57:52;95900.06;;;20.28;100.00
4598;BME280;62772;48.646;8.906;2023-07-28T16:02:52;95904.81;;;19.72;100.00
4598;BME280;62772;48.646;8.906;2023-07-28T16:07:52;95895.97;;;19.16;100.00
4598;BME280;62772;48.646;8.906;2023-07-28T16:12:53;95898.88;;;19.45;100.00
4598;BME280;62772;48.646;8.906;2023-07-28T16:17:54;95895.56;;;19.73;100.00
4598;BME280;62772;48.646;8.906;2023-07-28T16:22:54;95897.66;;;20.02;100.00
4598;BME280;62772;48.646;8.906;2023-07-28T16:27:55;95879.75;;;19.79;100.00
4598;BME280;62772;48.646;8.906;2023-07-28T16:32:55;95872.06;;;19.26;100.00
4598;BME280;62772;48.646;8.906;2023-07-28T16:37:56;95876.91;;;19.61;100.00
4598;BME280;62772;48.646;8.906;2023-07-28T16:42:56;95885.81;;;19.62;100.00
4598;BME280;62772;48.646;8.906;2023-07-28T16:47:57;95888.16;;;19.67;100.00
4598;BME280;62772;48.646;8.906;2023-07-28T16:52:58;95893.44;;;19.45;100.00
4598;BME280;62772;48.646;8.906;2023-07-28T16:57:58;95894.66;;;19.48;100.00
4598;BME280;62772;48.646;8.906;2023-07-28T17:02:59;95893.94;;;19.62;100.00
4598;BME280;62772;48.646;8.906;2023-07-28T17:07:59;95897.38;;;19.51;100.00
4598;BME280;62772;48.646;8.906;2023-07-28T17:13:00;95911.66;;;19.45;100.00
4598;BME280;62772;48.646;8.906;2023-07-28T17:18:00;95912.06;;;19.50;100.00
4598;BME280;62772;48.646;8.906;2023-07-28T17:23:01;95919.28;;;19.28;100.00
4598;BME280;62772;48.646;8.906;2023-07-28T17:28:01;95916.38;;;19.03;100.00
4598;BME280;62772;48.646;8.906;2023-07-28T17:33:02;95916.41;;;18.65;100.00
4598;BME280;62772;48.646;8.906;2023-07-28T17:38:05;95916.41;;;19.07;100.00
4598;BME280;62772;48.646;8.906;2023-07-28T17:43:07;95912.00;;;18.91;100.00
4598;BME280;62772;48.646;8.906;2023-07-28T17:48:10;95914.69;;;18.88;100.00
4598;BME280;62772;48.646;8.906;2023-07-28T17:53:10;95916.78;;;19.09;100.00
4598;BME280;62772;48.646;8.906;2023-07-28T17:58:11;95914.91;;;19.16;100.00
4598;BME280;62772;48.646;8.906;2023-07-28T18:03:12;95910.41;;;19.31;100.00
4598;BME280;62772;48.646;8.906;2023-07-28T18:08:12;95911.56;;;19.34;100.00
4598;BME280;62772;48.646;8.906;2023-07-28T18:13:13;95905.28;;;19.19;100.00
4598;BME280;62772;48.646;8.906;2023-07-28T18:18:16;95903.47;;;19.37;100.00
4598;BME280;62772;48.646;8.906;2023-07-28T18:23:16;95921.28;;;19.38;100.00
4598;BME280;62772;48.646;8.906;2023-07-28T18:28:17;95924.13;;;19.08;100.00
4598;BME280;62772;48.646;8.906;2023-07-28T18:33:18;95917.16;;;19.07;100.00
4598;BME280;62772;48.646;8.906;2023-07-28T18:38:20;95927.94;;;18.96;100.00
4598;BME280;62772;48.646;8.906;2023-07-28T18:43:20;95925.63;;;19.02;100.00
4598;BME280;62772;48.646;8.906;2023-07-28T18:48:20;95930.28;;;19.01;100.00
4598;BME280;62772;48.646;8.906;2023-07-28T18:53:21;95937.09;;;19.33;100.00
4598;BME280;62772;48.646;8.906;2023-07-28T18:58:21;95943.34;;;18.92;100.00
4598;BME280;62772;48.646;8.906;2023-07-28T19:03:22;95949.31;;;19.12;100.00
4598;BME280;62772;48.646;8.906;2023-07-28T19:08:24;95955.50;;;19.13;100.00
4598;BME280;62772;48.646;8.906;2023-07-28T19:13:26;95965.34;;;18.87;100.00
4598;BME280;62772;48.646;8.906;2023-07-28T19:18:26;95960.31;;;18.89;100.00
4598;BME280;62772;48.646;8.906;2023-07-28T19:23:27;95964.53;;;18.49;100.00
4598;BME280;62772;48.646;8.906;2023-07-28T19:28:27;95967.66;;;18.55;100.00
4598;BME280;62772;48.646;8.906;2023-07-28T19:33:28;95976.56;;;18.21;100.00
4598;BME280;62772;48.646;8.906;2023-07-28T19:38:28;95985.59;;;17.26;100.00
4598;BME280;62772;48.646;8.906;2023-07-28T19:43:29;95990.72;;;17.84;100.00
4598;BME280;62772;48.646;8.906;2023-07-28T19:48:29;95988.59;;;17.97;100.00
4598;BME280;62772;48.646;8.906;2023-07-28T19:53:31;96002.88;;;17.71;100.00
4598;BME280;62772;48.646;8.906;2023-07-28T19:58:31;95994.44;;;17.49;100.00
4598;BME280;62772;48.646;8.906;2023-07-28T20:03:32;96000.88;;;17.64;100.00
4598;BME280;62772;48.646;8.906;2023-07-28T20:08:32;95990.97;;;17.49;100.00
4598;BME280;62772;48.646;8.906;2023-07-28T20:13:33;95983.81;;;17.60;100.00
4598;BME280;62772;48.646;8.906;2023-07-28T20:18:33;95980.91;;;17.46;100.00
4598;BME280;62772;48.646;8.906;2023-07-28T20:23:34;95970.47;;;17.21;100.00
4598;BME280;62772;48.646;8.906;2023-07-28T20:28:34;95972.91;;;17.26;100.00
4598;BME280;62772;48.646;8.906;2023-07-28T20:33:35;95973.66;;;17.27;100.00
4598;BME280;62772;48.646;8.906;2023-07-28T20:38:35;95978.13;;;17.15;100.00
4598;BME280;62772;48.646;8.906;2023-07-28T20:43:36;95970.56;;;17.01;100.00
4598;BME280;62772;48.646;8.906;2023-07-28T20:48:36;95965.44;;;17.19;100.00
4598;BME280;62772;48.646;8.906;2023-07-28T20:53:36;95959.50;;;17.33;100.00
4598;BME280;62772;48.646;8.906;2023-07-28T20:58:37;95968.66;;;16.82;100.00
4598;BME280;62772;48.646;8.906;2023-07-28T21:03:37;95978.53;;;16.94;100.00
4598;BME280;62772;48.646;8.906;2023-07-28T21:08:38;95979.06;;;17.03;100.00
4598;BME280;62772;48.646;8.906;2023-07-28T21:13:38;95978.47;;;16.91;100.00
4598;BME280;62772;48.646;8.906;2023-07-28T21:18:39;95966.16;;;16.50;100.00
4598;BME280;62772;48.646;8.906;2023-07-28T21:23:39;95957.84;;;17.02;100.00
4598;BME280;62772;48.646;8.906;2023-07-28T21:28:40;95959.16;;;16.89;100.00
4598;BME280;62772;48.646;8.906;2023-07-28T21:33:41;95966.59;;;17.18;100.00
4598;BME280;62772;48.646;8.906;2023-07-28T21:38:41;95982.19;;;17.06;100.00
4598;BME280;62772;48.646;8.906;2023-07-28T21:43:42;95985.38;;;17.11;100.00
4598;BME280;62772;48.646;8.906;2023-07-28T21:48:42;95973.53;;;17.19;100.00
4598;BME280;62772;48.646;8.906;2023-07-28T21:53:43;95988.50;;;17.13;100.00
4598;BME280;62772;48.646;8.906;2023-07-28T21:58:43;95986.16;;;17.12;100.00
4598;BME280;62772;48.646;8.906;2023-07-28T22:03:44;95991.13;;;16.47;100.00
4598;BME280;62772;48.646;8.906;2023-07-28T22:08:44;95999.44;;;16.39;100.00
4598;BME280;62772;48.646;8.906;2023-07-28T22:13:46;95988.16;;;16.33;100.00
4598;BME280;62772;48.646;8.906;2023-07-28T22:18:47;95990.91;;;16.37;100.00
4598;BME280;62772;48.646;8.906;2023-07-28T22:23:48;95986.44;;;16.64;100.00
4598;BME280;62772;48.646;8.906;2023-07-28T22:28:48;95975.84;;;16.75;100.00
4598;BME280;62772;48.646;8.906;2023-07-28T22:33:49;95968.91;;;16.74;100.00
4598;BME280;62772;48.646;8.906;2023-07-28T22:38:49;95980.72;;;16.46;100.00
4598;BME280;62772;48.646;8.906;2023-07-28T22:43:49;95976.75;;;16.20;100.00
4598;BME280;62772;48.646;8.906;2023-07-28T22:48:50;95970.56;;;16.39;100.00
4598;BME280;62772;48.646;8.906;2023-07-28T22:53:51;95967.25;;;16.07;100.00
4598;BME280;62772;48.646;8.906;2023-07-28T22:58:51;95962.47;;;16.00;100.00
4598;BME280;62772;48.646;8.906;2023-07-28T23:03:52;95962.09;;;15.82;100.00
4598;BME280;62772;48.646;8.906;2023-07-28T23:08:52;95956.03;;;16.05;100.00
4598;BME280;62772;48.646;8.906;2023-07-28T23:13:53;95952.50;;;16.20;100.00
4598;BME280;62772;48.646;8.906;2023-07-28T23:18:54;95956.81;;;16.25;100.00
4598;BME280;62772;48.646;8.906;2023-07-28T23:23:54;95960.50;;;16.36;100.00
4598;BME280;62772;48.646;8.906;2023-07-28T23:28:54;95956.59;;;16.53;100.00
4598;BME280;62772;48.646;8.906;2023-07-28T23:33:55;95941.44;;;16.68;100.00
4598;BME280;62772;48.646;8.906;2023-07-28T23:38:55;95941.34;;;16.61;100.00
4598;BME280;62772;48.646;8.906;2023-07-28T23:43:56;95935.94;;;16.61;100.00
4598;BME280;62772;48.646;8.906;2023-07-28T23:48:56;95917.91;;;16.65;100.00
4598;BME280;62772;48.646;8.906;2023-07-28T23:53:57;95922.16;;;16.66;100.00
4598;BME280;62772;48.646;8.906;2023-07-28T23:58:58;95921.09;;;16.51;100.00
